sensor_id;sensor_type;location;lat;lon;timestamp;temperature;humidity
30764;DHT22;17497;51.476;7.770;2024-03-22T00:00:42;9.50;99.90
30764;DHT22;17497;51.476;7.770;2024-03-22T00:03:07;9.50;99.90
30764;DHT22;17497;51.476;7.770;2024-03-22T00:05:33;9.50;99.90
30764;DHT22;17497;51.476;7.770;2024-03-22T00:07:59;9.40;99.90
30764;DHT22;17497;51.476;7.770;2024-03-22T00:10:25;9.50;99.90
30764;DHT22;17497;51.476;7.770;2024-03-22T00:12:50;9.40;99.90
30764;DHT22;17497;51.476;7.770;2024-03-22T00:15:19;9.40;99.90
30764;DHT22;17497;51.476;7.770;2024-03-22T00:17:45;9.40;99.90
30764;DHT22;17497;51.476;7.770;2024-03-22T00:20:11;9.40;99.90
30764;DHT22;17497;51.476;7.770;2024-03-22T00:22:36;9.30;99.90
30764;DHT22;17497;51.476;7.770;2024-03-22T00:25:02;9.40;99.90
30764;DHT22;17497;51.476;7.770;2024-03-22T00:27:28;9.40;99.90
30764;DHT22;17497;51.476;7.770;2024-03-22T00:29:54;9.40;99.90
30764;DHT22;17497;51.476;7.770;2024-03-22T00:32:19;9.50;99.90
30764;DHT22;17497;51.476;7.770;2024-03-22T00:34:45;9.50;99.90
30764;DHT22;17497;51.476;7.770;2024-03-22T00:37:11;9.40;99.90
30764;DHT22;17497;51.476;7.770;2024-03-22T00:39:37;9.40;99.90
30764;DHT22;17497;51.476;7.770;2024-03-22T00:42:02;9.40;99.90
30764;DHT22;17497;51.476;7.770;2024-03-22T00:44:28;9.40;99.90
30764;DHT22;17497;51.476;7.770;2024-03-22T00:46:54;9.40;99.90
30764;DHT22;17497;51.476;7.770;2024-03-22T00:49:20;9.40;99.90
30764;DHT22;17497;51.476;7.770;2024-03-22T00:51:46;9.40;99.90
30764;DHT22;17497;51.476;7.770;2024-03-22T00:54:13;9.30;99.90
30764;DHT22;17497;51.476;7.770;2024-03-22T00:56:38;9.30;99.90
30764;DHT22;17497;51.476;7.770;2024-03-22T00:59:04;9.30;99.90
30764;DHT22;17497;51.476;7.770;2024-03-22T01:01:30;9.30;99.90
30764;DHT22;17497;51.476;7.770;2024-03-22T01:03:55;9.30;99.90
30764;DHT22;17497;51.476;7.770;2024-03-22T01:06:21;9.30;99.90
30764;DHT22;17497;51.476;7.770;2024-03-22T01:08:50;9.30;99.90
30764;DHT22;17497;51.476;7.770;2024-03-22T01:11:17;9.30;99.90
30764;DHT22;17497;51.476;7.770;2024-03-22T01:13:43;9.30;99.90
30764;DHT22;17497;51.476;7.770;2024-03-22T01:16:08;9.30;99.90
30764;DHT22;17497;51.476;7.770;2024-03-22T01:18:35;9.40;99.90
30764;DHT22;17497;51.476;7.770;2024-03-22T01:21:01;9.40;99.90
30764;DHT22;17497;51.476;7.770;2024-03-22T01:23:27;9.50;99.90
30764;DHT22;17497;51.476;7.770;2024-03-22T01:25:53;9.50;99.90
30764;DHT22;17497;51.476;7.770;2024-03-22T01:28:18;9.50;99.90
30764;DHT22;17497;51.476;7.770;2024-03-22T01:30:44;9.50;99.90
30764;DHT22;17497;51.476;7.770;2024-03-22T01:33:10;9.50;99.90
30764;DHT22;17497;51.476;7.770;2024-03-22T01:35:35;9.60;99.90
30764;DHT22;17497;51.476;7.770;2024-03-22T01:38:01;9.60;99.90
30764;DHT22;17497;51.476;7.770;2024-03-22T01:40:27;9.60;99.90
30764;DHT22;17497;51.476;7.770;2024-03-22T01:42:53;9.60;99.90
30764;DHT22;17497;51.476;7.770;2024-03-22T01:45:19;9.60;99.90
30764;DHT22;17497;51.476;7.770;2024-03-22T01:47:45;9.60;99.90
30764;DHT22;17497;51.476;7.770;2024-03-22T01:50:11;9.70;99.90
30764;DHT22;17497;51.476;7.770;2024-03-22T01:52:37;9.70;99.90
30764;DHT22;17497;51.476;7.770;2024-03-22T01:55:05;9.70;99.90
30764;DHT22;17497;51.476;7.770;2024-03-22T01:57:32;9.80;99.90
30764;DHT22;17497;51.476;7.770;2024-03-22T01:59:57;9.80;99.90
30764;DHT22;17497;51.476;7.770;2024-03-22T02:02:24;9.80;99.90
30764;DHT22;17497;51.476;7.770;2024-03-22T02:04:50;9.80;99.90
30764;DHT22;17497;51.476;7.770;2024-03-22T02:07:16;9.90;99.90
30764;DHT22;17497;51.476;7.770;2024-03-22T02:09:42;9.90;99.90
30764;DHT22;17497;51.476;7.770;2024-03-22T02:12:08;9.90;99.90
30764;DHT22;17497;51.476;7.770;2024-03-22T02:14:34;9.90;99.90
30764;DHT22;17497;51.476;7.770;2024-03-22T02:17:00;10.00;99.90
30764;DHT22;17497;51.476;7.770;2024-03-22T02:19:26;10.00;99.90
30764;DHT22;17497;51.476;7.770;2024-03-22T02:21:51;10.00;99.90
30764;DHT22;17497;51.476;7.770;2024-03-22T02:24:17;10.10;99.90
30764;DHT22;17497;51.476;7.770;2024-03-22T02:26:43;10.10;99.90
30764;DHT22;17497;51.476;7.770;2024-03-22T02:29:08;10.10;99.90
30764;DHT22;17497;51.476;7.770;2024-03-22T02:31:34;10.10;99.90
30764;DHT22;17497;51.476;7.770;2024-03-22T02:34:00;10.10;99.90
30764;DHT22;17497;51.476;7.770;2024-03-22T02:36:26;10.10;99.90
30764;DHT22;17497;51.476;7.770;2024-03-22T02:38:52;10.10;99.90
30764;DHT22;17497;51.476;7.770;2024-03-22T02:41:17;10.10;99.90
30764;DHT22;17497;51.476;7.770;2024-03-22T02:43:43;10.10;99.90
30764;DHT22;17497;51.476;7.770;2024-03-22T02:46:09;10.20;99.90
30764;DHT22;17497;51.476;7.770;2024-03-22T02:48:34;10.20;99.90
30764;DHT22;17497;51.476;7.770;2024-03-22T02:51:00;10.20;99.90
30764;DHT22;17497;51.476;7.770;2024-03-22T02:53:26;10.20;99.90
30764;DHT22;17497;51.476;7.770;2024-03-22T02:55:52;10.20;99.90
30764;DHT22;17497;51.476;7.770;2024-03-22T02:58:20;10.20;99.90
30764;DHT22;17497;51.476;7.770;2024-03-22T03:00:45;10.20;99.90
30764;DHT22;17497;51.476;7.770;2024-03-22T03:03:11;10.20;99.90
30764;DHT22;17497;51.476;7.770;2024-03-22T03:05:37;10.20;99.90
30764;DHT22;17497;51.476;7.770;2024-03-22T03:08:03;10.20;99.90
30764;DHT22;17497;51.476;7.770;2024-03-22T03:10:29;10.20;99.90
30764;DHT22;17497;51.476;7.770;2024-03-22T03:12:55;10.20;99.90
30764;DHT22;17497;51.476;7.770;2024-03-22T03:15:20;10.20;99.90
30764;DHT22;17497;51.476;7.770;2024-03-22T03:17:46;10.30;99.90
30764;DHT22;17497;51.476;7.770;2024-03-22T03:20:12;10.30;99.90
30764;DHT22;17497;51.476;7.770;2024-03-22T03:22:42;10.20;99.90
30764;DHT22;17497;51.476;7.770;2024-03-22T03:25:07;10.30;99.90
30764;DHT22;17497;51.476;7.770;2024-03-22T03:27:33;10.20;99.90
30764;DHT22;17497;51.476;7.770;2024-03-22T03:29:59;10.20;99.90
30764;DHT22;17497;51.476;7.770;2024-03-22T03:32:25;10.30;99.90
30764;DHT22;17497;51.476;7.770;2024-03-22T03:34:51;10.20;99.90
30764;DHT22;17497;51.476;7.770;2024-03-22T03:37:17;10.20;99.90
30764;DHT22;17497;51.476;7.770;2024-03-22T03:39:42;10.20;99.90
30764;DHT22;17497;51.476;7.770;2024-03-22T03:42:08;10.20;99.90
30764;DHT22;17497;51.476;7.770;2024-03-22T03:44:34;10.20;99.90
30764;DHT22;17497;51.476;7.770;2024-03-22T03:47:01;10.20;99.90
30764;DHT22;17497;51.476;7.770;2024-03-22T03:49:27;10.20;99.90
30764;DHT22;17497;51.476;7.770;2024-03-22T03:51:52;10.20;99.90
30764;DHT22;17497;51.476;7.770;2024-03-22T03:54:18;10.20;99.90
30764;DHT22;17497;51.476;7.770;2024-03-22T03:56:44;10.30;99.90
30764;DHT22;17497;51.476;7.770;2024-03-22T03:59:09;10.30;99.90
30764;DHT22;17497;51.476;7.770;2024-03-22T04:01:35;10.30;99.90
30764;DHT22;17497;51.476;7.770;2024-03-22T04:04:02;10.30;99.90
30764;DHT22;17497;51.476;7.770;2024-03-22T04:06:28;10.30;99.90
30764;DHT22;17497;51.476;7.770;2024-03-22T04:08:53;10.40;99.90
30764;DHT22;17497;51.476;7.770;2024-03-22T04:11:19;10.30;99.90
30764;DHT22;17497;51.476;7.770;2024-03-22T04:13:45;10.30;99.90
30764;DHT22;17497;51.476;7.770;2024-03-22T04:16:11;10.30;99.90
30764;DHT22;17497;51.476;7.770;2024-03-22T04:18:37;10.40;99.90
30764;DHT22;17497;51.476;7.770;2024-03-22T04:21:02;10.40;99.90
30764;DHT22;17497;51.476;7.770;2024-03-22T04:23:28;10.30;99.90
30764;DHT22;17497;51.476;7.770;2024-03-22T04:25:58;10.30;99.90
30764;DHT22;17497;51.476;7.770;2024-03-22T04:28:27;10.20;99.90
30764;DHT22;17497;51.476;7.770;2024-03-22T04:31:03;10.20;99.90
30764;DHT22;17497;51.476;7.770;2024-03-22T04:33:29;10.10;99.90
30764;DHT22;17497;51.476;7.770;2024-03-22T04:35:55;10.10;99.90
30764;DHT22;17497;51.476;7.770;2024-03-22T04:38:24;10.10;99.90
30764;DHT22;17497;51.476;7.770;2024-03-22T04:40:50;10.00;99.90
30764;DHT22;17497;51.476;7.770;2024-03-22T04:43:16;10.00;99.90
30764;DHT22;17497;51.476;7.770;2024-03-22T04:45:45;10.00;99.90
30764;DHT22;17497;51.476;7.770;2024-03-22T04:48:16;10.00;99.90
30764;DHT22;17497;51.476;7.770;2024-03-22T04:50:42;10.00;99.90
30764;DHT22;17497;51.476;7.770;2024-03-22T04:53:07;10.00;99.90
30764;DHT22;17497;51.476;7.770;2024-03-22T04:55:33;10.10;99.90
30764;DHT22;17497;51.476;7.770;2024-03-22T04:57:59;10.20;99.90
30764;DHT22;17497;51.476;7.770;2024-03-22T05:00:25;10.10;99.90
30764;DHT22;17497;51.476;7.770;2024-03-22T05:02:51;10.20;99.90
30764;DHT22;17497;51.476;7.770;2024-03-22T05:05:17;10.20;99.90
30764;DHT22;17497;51.476;7.770;2024-03-22T05:07:42;10.20;99.90
30764;DHT22;17497;51.476;7.770;2024-03-22T05:10:08;10.30;99.90
30764;DHT22;17497;51.476;7.770;2024-03-22T05:12:35;10.30;99.90
30764;DHT22;17497;51.476;7.770;2024-03-22T05:15:04;10.30;99.90
30764;DHT22;17497;51.476;7.770;2024-03-22T05:17:30;10.40;99.90
30764;DHT22;17497;51.476;7.770;2024-03-22T05:19:58;10.30;99.90
30764;DHT22;17497;51.476;7.770;2024-03-22T05:22:23;10.40;99.90
30764;DHT22;17497;51.476;7.770;2024-03-22T05:24:49;10.40;99.90
30764;DHT22;17497;51.476;7.770;2024-03-22T05:27:15;10.40;99.90
30764;DHT22;17497;51.476;7.770;2024-03-22T05:29:40;10.40;99.90
30764;DHT22;17497;51.476;7.770;2024-03-22T05:32:06;10.40;99.90
30764;DHT22;17497;51.476;7.770;2024-03-22T05:34:32;10.40;99.90
30764;DHT22;17497;51.476;7.770;2024-03-22T05:36:58;10.40;99.90
30764;DHT22;17497;51.476;7.770;2024-03-22T05:39:24;10.40;99.90
30764;DHT22;17497;51.476;7.770;2024-03-22T05:41:50;10.50;99.90
30764;DHT22;17497;51.476;7.770;2024-03-22T05:44:15;10.50;99.90
30764;DHT22;17497;51.476;7.770;2024-03-22T05:46:41;10.50;99.90
30764;DHT22;17497;51.476;7.770;2024-03-22T05:49:07;10.50;99.90
30764;DHT22;17497;51.476;7.770;2024-03-22T05:51:33;10.50;99.90
30764;DHT22;17497;51.476;7.770;2024-03-22T05:53:59;10.60;99.90
30764;DHT22;17497;51.476;7.770;2024-03-22T05:56:24;10.60;99.90
30764;DHT22;17497;51.476;7.770;2024-03-22T05:58:50;10.60;99.90
30764;DHT22;17497;51.476;7.770;2024-03-22T06:01:16;10.60;99.90
30764;DHT22;17497;51.476;7.770;2024-03-22T06:03:42;10.60;99.90
30764;DHT22;17497;51.476;7.770;2024-03-22T06:06:07;10.60;99.90
30764;DHT22;17497;51.476;7.770;2024-03-22T06:08:33;10.70;99.90
30764;DHT22;17497;51.476;7.770;2024-03-22T06:11:00;10.70;99.90
30764;DHT22;17497;51.476;7.770;2024-03-22T06:13:26;10.70;99.90
30764;DHT22;17497;51.476;7.770;2024-03-22T06:15:52;10.70;99.90
30764;DHT22;17497;51.476;7.770;2024-03-22T06:18:18;10.70;99.90
30764;DHT22;17497;51.476;7.770;2024-03-22T06:20:43;10.70;99.90
30764;DHT22;17497;51.476;7.770;2024-03-22T06:23:09;10.80;99.90
30764;DHT22;17497;51.476;7.770;2024-03-22T06:25:35;10.80;99.90
30764;DHT22;17497;51.476;7.770;2024-03-22T06:28:01;10.80;99.90
30764;DHT22;17497;51.476;7.770;2024-03-22T06:30:27;10.90;99.90
30764;DHT22;17497;51.476;7.770;2024-03-22T06:32:53;10.90;99.90
30764;DHT22;17497;51.476;7.770;2024-03-22T06:35:20;11.00;99.90
30764;DHT22;17497;51.476;7.770;2024-03-22T06:37:46;11.00;99.90
30764;DHT22;17497;51.476;7.770;2024-03-22T06:40:12;11.00;99.90
30764;DHT22;17497;51.476;7.770;2024-03-22T06:42:37;11.10;99.90
30764;DHT22;17497;51.476;7.770;2024-03-22T06:45:03;11.10;99.90
30764;DHT22;17497;51.476;7.770;2024-03-22T06:47:29;11.20;99.90
30764;DHT22;17497;51.476;7.770;2024-03-22T06:49:55;11.30;99.90
30764;DHT22;17497;51.476;7.770;2024-03-22T06:52:20;11.30;99.90
30764;DHT22;17497;51.476;7.770;2024-03-22T06:54:46;11.40;99.90
30764;DHT22;17497;51.476;7.770;2024-03-22T06:57:12;11.50;99.90
30764;DHT22;17497;51.476;7.770;2024-03-22T06:59:38;11.50;99.90
30764;DHT22;17497;51.476;7.770;2024-03-22T07:02:03;11.60;99.90
30764;DHT22;17497;51.476;7.770;2024-03-22T07:04:29;11.60;99.90
30764;DHT22;17497;51.476;7.770;2024-03-22T07:06:55;11.70;99.90
30764;DHT22;17497;51.476;7.770;2024-03-22T07:09:21;11.80;99.90
30764;DHT22;17497;51.476;7.770;2024-03-22T07:11:47;11.80;99.90
30764;DHT22;17497;51.476;7.770;2024-03-22T07:14:12;11.80;99.90
30764;DHT22;17497;51.476;7.770;2024-03-22T07:16:38;11.90;99.90
30764;DHT22;17497;51.476;7.770;2024-03-22T07:19:04;11.90;99.90
30764;DHT22;17497;51.476;7.770;2024-03-22T07:21:31;12.00;99.90
30764;DHT22;17497;51.476;7.770;2024-03-22T07:23:57;12.00;99.90
30764;DHT22;17497;51.476;7.770;2024-03-22T07:26:22;12.10;99.90
30764;DHT22;17497;51.476;7.770;2024-03-22T07:28:48;12.10;99.90
30764;DHT22;17497;51.476;7.770;2024-03-22T07:31:14;12.10;99.90
30764;DHT22;17497;51.476;7.770;2024-03-22T07:33:40;12.20;99.90
30764;DHT22;17497;51.476;7.770;2024-03-22T07:36:06;12.20;99.90
30764;DHT22;17497;51.476;7.770;2024-03-22T07:38:32;12.30;99.90
30764;DHT22;17497;51.476;7.770;2024-03-22T07:40:59;12.30;99.90
30764;DHT22;17497;51.476;7.770;2024-03-22T07:43:30;12.30;99.90
30764;DHT22;17497;51.476;7.770;2024-03-22T07:45:56;12.40;99.90
30764;DHT22;17497;51.476;7.770;2024-03-22T07:48:22;12.40;99.90
30764;DHT22;17497;51.476;7.770;2024-03-22T07:50:55;12.40;99.90
30764;DHT22;17497;51.476;7.770;2024-03-22T07:53:21;12.40;99.90
30764;DHT22;17497;51.476;7.770;2024-03-22T07:55:46;12.50;99.90
30764;DHT22;17497;51.476;7.770;2024-03-22T07:58:12;12.50;99.90
30764;DHT22;17497;51.476;7.770;2024-03-22T08:00:38;12.60;99.90
30764;DHT22;17497;51.476;7.770;2024-03-22T08:03:04;12.70;99.90
30764;DHT22;17497;51.476;7.770;2024-03-22T08:05:30;12.80;99.90
30764;DHT22;17497;51.476;7.770;2024-03-22T08:07:55;12.80;99.90
30764;DHT22;17497;51.476;7.770;2024-03-22T08:10:21;12.80;99.90
30764;DHT22;17497;51.476;7.770;2024-03-22T08:12:47;12.90;99.90
30764;DHT22;17497;51.476;7.770;2024-03-22T08:15:12;13.00;99.90
30764;DHT22;17497;51.476;7.770;2024-03-22T08:17:38;13.10;99.90
30764;DHT22;17497;51.476;7.770;2024-03-22T08:20:04;13.20;99.90
30764;DHT22;17497;51.476;7.770;2024-03-22T08:22:30;13.10;99.90
30764;DHT22;17497;51.476;7.770;2024-03-22T08:24:56;13.00;99.90
30764;DHT22;17497;51.476;7.770;2024-03-22T08:27:21;13.00;99.90
30764;DHT22;17497;51.476;7.770;2024-03-22T08:29:47;13.00;99.90
30764;DHT22;17497;51.476;7.770;2024-03-22T08:32:13;13.10;99.90
30764;DHT22;17497;51.476;7.770;2024-03-22T08:34:38;13.10;99.90
30764;DHT22;17497;51.476;7.770;2024-03-22T08:37:04;13.10;99.90
30764;DHT22;17497;51.476;7.770;2024-03-22T08:39:30;13.00;99.90
30764;DHT22;17497;51.476;7.770;2024-03-22T08:41:56;13.10;99.90
30764;DHT22;17497;51.476;7.770;2024-03-22T08:44:22;13.10;99.90
30764;DHT22;17497;51.476;7.770;2024-03-22T08:46:48;13.20;99.90
30764;DHT22;17497;51.476;7.770;2024-03-22T08:49:15;13.30;99.90
30764;DHT22;17497;51.476;7.770;2024-03-22T08:51:41;13.50;99.90
30764;DHT22;17497;51.476;7.770;2024-03-22T08:54:07;13.60;99.90
30764;DHT22;17497;51.476;7.770;2024-03-22T08:56:32;13.60;99.90
30764;DHT22;17497;51.476;7.770;2024-03-22T08:58:58;13.50;99.90
30764;DHT22;17497;51.476;7.770;2024-03-22T09:04:13;13.40;99.90
30764;DHT22;17497;51.476;7.770;2024-03-22T09:06:40;13.40;99.90
30764;DHT22;17497;51.476;7.770;2024-03-22T09:09:06;13.40;99.90
30764;DHT22;17497;51.476;7.770;2024-03-22T09:11:33;13.30;99.90
30764;DHT22;17497;51.476;7.770;2024-03-22T09:14:03;13.20;99.90
30764;DHT22;17497;51.476;7.770;2024-03-22T09:16:32;13.20;99.90
30764;DHT22;17497;51.476;7.770;2024-03-22T09:18:58;13.20;90.80
30764;DHT22;17497;51.476;7.770;2024-03-22T09:21:24;13.40;99.90
30764;DHT22;17497;51.476;7.770;2024-03-22T09:23:50;13.40;99.90
30764;DHT22;17497;51.476;7.770;2024-03-22T09:26:18;13.50;99.90
30764;DHT22;17497;51.476;7.770;2024-03-22T09:28:54;13.50;64.60
30764;DHT22;17497;51.476;7.770;2024-03-22T09:31:35;13.50;69.80
30764;DHT22;17497;51.476;7.770;2024-03-22T09:34:02;13.50;77.80
30764;DHT22;17497;51.476;7.770;2024-03-22T09:36:30;13.50;75.20
30764;DHT22;17497;51.476;7.770;2024-03-22T09:39:02;13.60;79.20
30764;DHT22;17497;51.476;7.770;2024-03-22T09:41:28;13.70;70.60
30764;DHT22;17497;51.476;7.770;2024-03-22T09:44:07;13.70;65.20
30764;DHT22;17497;51.476;7.770;2024-03-22T09:46:35;13.60;58.90
30764;DHT22;17497;51.476;7.770;2024-03-22T09:49:10;13.70;55.20
30764;DHT22;17497;51.476;7.770;2024-03-22T09:51:42;13.80;54.90
30764;DHT22;17497;51.476;7.770;2024-03-22T09:54:09;13.90;57.70
30764;DHT22;17497;51.476;7.770;2024-03-22T09:56:35;14.10;78.00
30764;DHT22;17497;51.476;7.770;2024-03-22T09:59:02;14.30;67.00
30764;DHT22;17497;51.476;7.770;2024-03-22T10:01:29;14.10;31.50
30764;DHT22;17497;51.476;7.770;2024-03-22T10:06:47;14.10;36.00
30764;DHT22;17497;51.476;7.770;2024-03-22T10:09:13;14.20;49.00
30764;DHT22;17497;51.476;7.770;2024-03-22T10:11:39;14.30;22.30
30764;DHT22;17497;51.476;7.770;2024-03-22T10:14:04;14.20;20.30
30764;DHT22;17497;51.476;7.770;2024-03-22T10:16:36;14.30;34.10
30764;DHT22;17497;51.476;7.770;2024-03-22T10:19:02;14.30;3.70
30764;DHT22;17497;51.476;7.770;2024-03-22T10:21:28;14.60;1.00
30764;DHT22;17497;51.476;7.770;2024-03-22T10:23:54;14.50;1.00
30764;DHT22;17497;51.476;7.770;2024-03-22T10:26:20;14.40;1.00
30764;DHT22;17497;51.476;7.770;2024-03-22T10:28:46;14.30;1.00
30764;DHT22;17497;51.476;7.770;2024-03-22T10:31:12;14.40;1.00
30764;DHT22;17497;51.476;7.770;2024-03-22T10:33:38;14.40;1.00
30764;DHT22;17497;51.476;7.770;2024-03-22T10:36:05;14.30;1.00
30764;DHT22;17497;51.476;7.770;2024-03-22T10:38:31;14.20;1.00
30764;DHT22;17497;51.476;7.770;2024-03-22T10:40:57;14.20;1.00
30764;DHT22;17497;51.476;7.770;2024-03-22T10:43:24;14.20;1.00
30764;DHT22;17497;51.476;7.770;2024-03-22T10:45:50;14.40;1.00
30764;DHT22;17497;51.476;7.770;2024-03-22T10:48:17;14.50;1.00
30764;DHT22;17497;51.476;7.770;2024-03-22T10:50:43;14.60;1.00
30764;DHT22;17497;51.476;7.770;2024-03-22T10:53:12;14.70;1.00
30764;DHT22;17497;51.476;7.770;2024-03-22T10:55:41;14.90;1.00
30764;DHT22;17497;51.476;7.770;2024-03-22T10:58:08;14.90;99.90
30764;DHT22;17497;51.476;7.770;2024-03-22T11:00:41;15.10;99.90
30764;DHT22;17497;51.476;7.770;2024-03-22T11:03:07;15.10;99.90
30764;DHT22;17497;51.476;7.770;2024-03-22T11:05:33;15.00;99.90
30764;DHT22;17497;51.476;7.770;2024-03-22T11:08:05;14.80;99.90
30764;DHT22;17497;51.476;7.770;2024-03-22T11:10:33;14.90;99.90
30764;DHT22;17497;51.476;7.770;2024-03-22T11:13:02;14.80;1.00
30764;DHT22;17497;51.476;7.770;2024-03-22T11:15:28;14.80;1.00
30764;DHT22;17497;51.476;7.770;2024-03-22T11:17:54;14.80;1.00
30764;DHT22;17497;51.476;7.770;2024-03-22T11:20:20;14.60;1.00
30764;DHT22;17497;51.476;7.770;2024-03-22T11:22:46;14.60;1.00
30764;DHT22;17497;51.476;7.770;2024-03-22T11:25:12;14.60;1.00
30764;DHT22;17497;51.476;7.770;2024-03-22T11:27:38;14.50;1.00
30764;DHT22;17497;51.476;7.770;2024-03-22T11:30:04;14.60;1.00
30764;DHT22;17497;51.476;7.770;2024-03-22T11:32:30;14.60;1.00
30764;DHT22;17497;51.476;7.770;2024-03-22T11:34:56;14.70;1.00
30764;DHT22;17497;51.476;7.770;2024-03-22T11:37:22;14.80;1.00
30764;DHT22;17497;51.476;7.770;2024-03-22T11:39:48;14.80;1.00
30764;DHT22;17497;51.476;7.770;2024-03-22T11:42:14;14.90;1.00
30764;DHT22;17497;51.476;7.770;2024-03-22T11:44:39;14.90;1.00
30764;DHT22;17497;51.476;7.770;2024-03-22T11:47:06;15.20;1.00
30764;DHT22;17497;51.476;7.770;2024-03-22T11:49:31;15.30;1.00
30764;DHT22;17497;51.476;7.770;2024-03-22T11:51:57;15.40;1.00
30764;DHT22;17497;51.476;7.770;2024-03-22T11:54:23;15.30;1.00
30764;DHT22;17497;51.476;7.770;2024-03-22T11:56:51;15.30;1.00
30764;DHT22;17497;51.476;7.770;2024-03-22T11:59:20;15.40;1.00
30764;DHT22;17497;51.476;7.770;2024-03-22T12:01:46;15.60;99.90
30764;DHT22;17497;51.476;7.770;2024-03-22T12:04:12;15.40;1.00
30764;DHT22;17497;51.476;7.770;2024-03-22T12:06:46;15.30;1.00
30764;DHT22;17497;51.476;7.770;2024-03-22T12:09:12;15.20;1.00
30764;DHT22;17497;51.476;7.770;2024-03-22T12:11:39;15.20;1.00
30764;DHT22;17497;51.476;7.770;2024-03-22T12:14:05;15.30;99.90
30764;DHT22;17497;51.476;7.770;2024-03-22T12:16:30;15.40;99.90
30764;DHT22;17497;51.476;7.770;2024-03-22T12:18:56;15.40;99.90
30764;DHT22;17497;51.476;7.770;2024-03-22T12:21:22;15.20;99.90
30764;DHT22;17497;51.476;7.770;2024-03-22T12:23:48;15.00;99.90
30764;DHT22;17497;51.476;7.770;2024-03-22T12:26:14;15.00;1.00
30764;DHT22;17497;51.476;7.770;2024-03-22T12:28:40;14.90;1.00
30764;DHT22;17497;51.476;7.770;2024-03-22T12:31:07;14.70;1.00
30764;DHT22;17497;51.476;7.770;2024-03-22T12:33:33;14.70;1.00
30764;DHT22;17497;51.476;7.770;2024-03-22T12:35:59;14.60;1.00
30764;DHT22;17497;51.476;7.770;2024-03-22T12:38:25;14.50;1.00
30764;DHT22;17497;51.476;7.770;2024-03-22T12:40:51;14.50;1.00
30764;DHT22;17497;51.476;7.770;2024-03-22T12:43:17;14.50;1.00
30764;DHT22;17497;51.476;7.770;2024-03-22T12:45:43;14.50;1.00
30764;DHT22;17497;51.476;7.770;2024-03-22T12:48:10;14.50;1.00
30764;DHT22;17497;51.476;7.770;2024-03-22T12:50:36;14.50;1.00
30764;DHT22;17497;51.476;7.770;2024-03-22T12:53:01;14.50;1.00
30764;DHT22;17497;51.476;7.770;2024-03-22T12:55:27;14.30;1.00
30764;DHT22;17497;51.476;7.770;2024-03-22T12:57:54;14.30;1.00
30764;DHT22;17497;51.476;7.770;2024-03-22T13:00:20;14.30;1.00
30764;DHT22;17497;51.476;7.770;2024-03-22T13:02:46;14.20;1.00
30764;DHT22;17497;51.476;7.770;2024-03-22T13:05:12;14.20;10.70
30764;DHT22;17497;51.476;7.770;2024-03-22T13:07:38;14.20;12.30
30764;DHT22;17497;51.476;7.770;2024-03-22T13:10:04;14.30;16.00
30764;DHT22;17497;51.476;7.770;2024-03-22T13:12:31;14.30;22.90
30764;DHT22;17497;51.476;7.770;2024-03-22T13:14:57;14.30;25.00
30764;DHT22;17497;51.476;7.770;2024-03-22T13:17:25;14.30;15.20
30764;DHT22;17497;51.476;7.770;2024-03-22T13:19:51;14.30;25.50
30764;DHT22;17497;51.476;7.770;2024-03-22T13:22:16;14.20;12.00
30764;DHT22;17497;51.476;7.770;2024-03-22T13:24:46;14.20;21.40
30764;DHT22;17497;51.476;7.770;2024-03-22T13:27:12;14.10;29.10
30764;DHT22;17497;51.476;7.770;2024-03-22T13:29:40;14.10;41.10
30764;DHT22;17497;51.476;7.770;2024-03-22T13:32:06;14.10;50.70
30764;DHT22;17497;51.476;7.770;2024-03-22T13:34:36;14.10;55.50
30764;DHT22;17497;51.476;7.770;2024-03-22T13:37:02;14.10;66.00
30764;DHT22;17497;51.476;7.770;2024-03-22T13:39:27;14.00;57.50
30764;DHT22;17497;51.476;7.770;2024-03-22T13:41:56;14.00;56.70
30764;DHT22;17497;51.476;7.770;2024-03-22T13:44:22;14.00;62.20
30764;DHT22;17497;51.476;7.770;2024-03-22T13:46:51;13.90;84.10
30764;DHT22;17497;51.476;7.770;2024-03-22T13:49:17;13.90;91.60
30764;DHT22;17497;51.476;7.770;2024-03-22T13:51:43;13.80;99.50
30764;DHT22;17497;51.476;7.770;2024-03-22T13:54:10;13.90;99.90
30764;DHT22;17497;51.476;7.770;2024-03-22T13:56:35;13.70;99.90
30764;DHT22;17497;51.476;7.770;2024-03-22T13:59:03;13.70;99.90
30764;DHT22;17497;51.476;7.770;2024-03-22T14:01:31;13.70;99.90
30764;DHT22;17497;51.476;7.770;2024-03-22T14:03:57;13.60;99.90
30764;DHT22;17497;51.476;7.770;2024-03-22T14:06:23;13.50;99.90
30764;DHT22;17497;51.476;7.770;2024-03-22T14:08:49;13.40;99.90
30764;DHT22;17497;51.476;7.770;2024-03-22T14:11:15;13.20;99.90
30764;DHT22;17497;51.476;7.770;2024-03-22T14:13:40;13.10;99.90
30764;DHT22;17497;51.476;7.770;2024-03-22T14:16:06;12.90;99.90
30764;DHT22;17497;51.476;7.770;2024-03-22T14:18:35;12.80;99.90
30764;DHT22;17497;51.476;7.770;2024-03-22T14:21:01;12.60;99.90
30764;DHT22;17497;51.476;7.770;2024-03-22T14:23:28;12.60;99.90
30764;DHT22;17497;51.476;7.770;2024-03-22T14:25:55;12.50;99.90
30764;DHT22;17497;51.476;7.770;2024-03-22T14:28:20;12.40;99.90
30764;DHT22;17497;51.476;7.770;2024-03-22T14:30:47;12.40;99.90
30764;DHT22;17497;51.476;7.770;2024-03-22T14:33:13;12.30;99.90
30764;DHT22;17497;51.476;7.770;2024-03-22T14:35:38;12.30;99.90
30764;DHT22;17497;51.476;7.770;2024-03-22T14:38:04;12.10;99.90
30764;DHT22;17497;51.476;7.770;2024-03-22T14:40:33;12.10;99.90
30764;DHT22;17497;51.476;7.770;2024-03-22T14:43:02;12.00;99.90
30764;DHT22;17497;51.476;7.770;2024-03-22T14:45:28;12.00;99.90
30764;DHT22;17497;51.476;7.770;2024-03-22T14:47:54;12.00;99.90
30764;DHT22;17497;51.476;7.770;2024-03-22T14:50:20;12.00;99.90
30764;DHT22;17497;51.476;7.770;2024-03-22T14:52:48;12.00;99.90
30764;DHT22;17497;51.476;7.770;2024-03-22T14:55:14;11.80;99.90
30764;DHT22;17497;51.476;7.770;2024-03-22T14:57:40;11.80;99.90
30764;DHT22;17497;51.476;7.770;2024-03-22T15:00:06;11.80;99.90
30764;DHT22;17497;51.476;7.770;2024-03-22T15:02:36;11.70;99.90
30764;DHT22;17497;51.476;7.770;2024-03-22T15:05:02;11.70;99.90
30764;DHT22;17497;51.476;7.770;2024-03-22T15:07:29;11.70;99.90
30764;DHT22;17497;51.476;7.770;2024-03-22T15:09:55;11.60;99.90
30764;DHT22;17497;51.476;7.770;2024-03-22T15:12:24;11.60;99.90
30764;DHT22;17497;51.476;7.770;2024-03-22T15:14:53;11.50;99.90
30764;DHT22;17497;51.476;7.770;2024-03-22T15:17:19;11.60;99.90
30764;DHT22;17497;51.476;7.770;2024-03-22T15:19:48;11.60;99.90
30764;DHT22;17497;51.476;7.770;2024-03-22T15:22:14;11.40;99.90
30764;DHT22;17497;51.476;7.770;2024-03-22T15:24:49;11.40;99.90
30764;DHT22;17497;51.476;7.770;2024-03-22T15:27:16;11.30;99.90
30764;DHT22;17497;51.476;7.770;2024-03-22T15:29:41;11.30;99.90
30764;DHT22;17497;51.476;7.770;2024-03-22T15:32:07;11.30;99.90
30764;DHT22;17497;51.476;7.770;2024-03-22T15:34:33;11.10;99.90